Time;durP1;ratioP1;P1;durP2;ratioP2;P2;SDS_P1;SDS_P2;PMS_P1;PMS_P2;Temp;Humidity;BMP_temperature;BMP_pressure;BME280_temperature;BME280_humidity;BME280_pressure;Samples;Min_cycle;Max_cycle;Signal;HPM_P1;HPM_P2
2022/12/14 00:02:17;;;;;;;13.75;5.60;;;;;;;;;;6138188;23;20040;-68
2022/12/14 00:04:43;;;;;;;13.35;5.50;;;;;;;;;;6115679;23;20021;-68
2022/12/14 00:07:11;;;;;;;15.55;5.40;;;;;;;;;;6135384;23;20025;-67
2022/12/14 00:09:38;;;;;;;17.08;5.93;;;;;;;;;;6117459;23;20034;-68
2022/12/14 00:12:05;;;;;;;15.55;5.43;;;;;;;;;;6099613;23;20112;-67
2022/12/14 00:14:32;;;;;;;13.80;5.10;;;;;;;;;;6116052;23;20100;-65
2022/12/14 00:16:59;;;;;;;12.60;4.47;;;;;;;;;;6142548;23;20025;-67
2022/12/14 00:19:25;;;;;;;16.60;5.90;;;;;;;;;;6076205;23;20025;-66
2022/12/14 00:21:52;;;;;;;16.42;5.13;;;;;;;;;;6118365;23;20022;-67
2022/12/14 00:24:20;;;;;;;14.65;5.15;;;;;;;;;;6135252;23;20098;-67
2022/12/14 00:26:46;;;;;;;17.58;5.10;;;;;;;;;;6118499;23;20030;-65
2022/12/14 00:29:13;;;;;;;17.40;5.07;;;;;;;;;;6107146;23;20092;-64
2022/12/14 00:31:40;;;;;;;14.48;5.55;;;;;;;;;;6132608;23;20025;-69
2022/12/14 00:34:08;;;;;;;14.05;5.15;;;;;;;;;;6108393;23;20108;-68
2022/12/14 00:36:36;;;;;;;12.25;4.82;;;;;;;;;;6107694;23;20029;-64
2022/12/14 00:39:03;;;;;;;12.48;4.75;;;;;;;;;;6106392;23;20051;-67
2022/12/14 00:41:31;;;;;;;15.38;5.28;;;;;;;;;;6113417;23;20060;-64
2022/12/14 00:43:58;;;;;;;12.00;4.72;;;;;;;;;;6120678;23;20075;-68
2022/12/14 00:46:24;;;;;;;13.40;4.97;;;;;;;;;;6107115;23;20104;-67
2022/12/14 00:48:51;;;;;;;12.32;4.97;;;;;;;;;;6117188;23;20100;-68
2022/12/14 00:51:18;;;;;;;13.20;4.75;;;;;;;;;;6095652;23;20025;-65
2022/12/14 00:53:44;;;;;;;13.90;4.82;;;;;;;;;;6078849;23;20341;-65
2022/12/14 00:56:11;;;;;;;11.68;4.57;;;;;;;;;;6109265;23;20089;-66
2022/12/14 00:58:39;;;;;;;13.00;4.82;;;;;;;;;;6090624;23;20029;-66
2022/12/14 01:01:07;;;;;;;14.75;5.20;;;;;;;;;;6121982;23;20021;-66
2022/12/14 01:03:34;;;;;;;11.40;4.03;;;;;;;;;;6108490;23;20021;-70
2022/12/14 01:06:00;;;;;;;13.48;4.60;;;;;;;;;;6110536;23;20022;-69
2022/12/14 01:08:33;;;;;;;10.98;4.30;;;;;;;;;;6103591;23;20029;-70
2022/12/14 01:11:03;;;;;;;14.55;4.50;;;;;;;;;;6105470;23;20121;-63
2022/12/14 01:13:29;;;;;;;13.13;4.53;;;;;;;;;;6120810;23;20033;-70
2022/12/14 01:16:01;;;;;;;13.38;5.47;;;;;;;;;;6097801;23;20025;-65
2022/12/14 01:18:28;;;;;;;18.10;4.95;;;;;;;;;;6088418;23;20030;-64
2022/12/14 01:20:56;;;;;;;13.80;5.20;;;;;;;;;;6125466;23;20030;-65
2022/12/14 01:23:23;;;;;;;12.80;5.03;;;;;;;;;;6114537;23;20025;-70
2022/12/14 01:25:50;;;;;;;13.60;4.70;;;;;;;;;;6129118;23;20026;-66
2022/12/14 01:28:16;;;;;;;12.48;4.85;;;;;;;;;;6099027;23;20026;-70
2022/12/14 01:30:43;;;;;;;12.82;5.18;;;;;;;;;;6130356;23;20101;-66
2022/12/14 01:33:10;;;;;;;12.88;4.70;;;;;;;;;;6103688;23;20030;-66
2022/12/14 01:35:37;;;;;;;12.90;5.15;;;;;;;;;;6095209;23;20036;-70
2022/12/14 01:38:03;;;;;;;15.88;4.50;;;;;;;;;;6085749;23;20033;-69
2022/12/14 01:40:30;;;;;;;11.98;4.50;;;;;;;;;;6133172;23;20026;-64
2022/12/14 01:42:56;;;;;;;12.27;4.72;;;;;;;;;;6103987;23;20026;-66
2022/12/14 01:45:23;;;;;;;16.83;4.90;;;;;;;;;;6098816;23;20026;-67
2022/12/14 01:47:52;;;;;;;12.05;4.32;;;;;;;;;;6086967;23;20101;-65
2022/12/14 01:50:25;;;;;;;9.18;4.20;;;;;;;;;;6151902;23;20022;-66
2022/12/14 01:52:52;;;;;;;16.20;5.00;;;;;;;;;;6138394;23;20068;-65
2022/12/14 01:55:21;;;;;;;10.95;4.50;;;;;;;;;;6099853;23;20025;-69
2022/12/14 01:57:50;;;;;;;11.73;4.18;;;;;;;;;;6096689;23;20025;-67
2022/12/14 02:00:17;;;;;;;;;;;;;;;;;;6127199;23;20026;-67
2022/12/14 02:02:46;;;;;;;12.80;3.88;;;;;;;;;;6106098;23;19921;-68
2022/12/14 02:05:13;;;;;;;13.23;4.63;;;;;;;;;;6112867;23;20023;-69
2022/12/14 02:07:42;;;;;;;16.77;5.25;;;;;;;;;;6122419;23;20031;-68
2022/12/14 02:10:08;;;;;;;;;;;;;;;;;;6089365;23;20026;-66
2022/12/14 02:12:38;;;;;;;10.82;4.45;;;;;;;;;;6094157;23;19936;-68
2022/12/14 02:15:05;;;;;;;13.20;4.35;;;;;;;;;;6137366;23;20232;-65
2022/12/14 02:17:32;;;;;;;8.85;3.88;;;;;;;;;;6106277;23;20052;-67
2022/12/14 02:19:59;;;;;;;13.07;4.20;;;;;;;;;;6093081;23;20040;-67
2022/12/14 02:22:45;;;;;;;13.35;4.93;;;;;;;;;;6112814;23;20056;-68
2022/12/14 02:25:21;;;;;;;10.48;4.00;;;;;;;;;;6104931;23;20080;-68
2022/12/14 02:28:05;;;;;;;10.60;3.88;;;;;;;;;;6071535;23;20073;-64
2022/12/14 02:30:35;;;;;;;10.80;4.47;;;;;;;;;;6051309;23;20039;-65
2022/12/14 02:33:19;;;;;;;10.90;4.03;;;;;;;;;;6107335;23;20218;-64
2022/12/14 02:35:48;;;;;;;12.65;4.55;;;;;;;;;;6112252;23;20522;-65
2022/12/14 02:38:19;;;;;;;10.82;4.18;;;;;;;;;;6090308;23;20077;-65
2022/12/14 02:40:50;;;;;;;10.65;4.38;;;;;;;;;;6128811;23;20037;-68
2022/12/14 02:43:22;;;;;;;11.65;4.57;;;;;;;;;;6150127;23;20135;-69
2022/12/14 02:45:53;;;;;;;8.30;3.67;;;;;;;;;;6130977;23;20124;-67
2022/12/14 02:48:22;;;;;;;11.05;4.22;;;;;;;;;;6089014;23;20032;-65
2022/12/14 02:50:57;;;;;;;11.10;4.53;;;;;;;;;;6109980;23;20017;-67
2022/12/14 02:53:25;;;;;;;12.55;4.88;;;;;;;;;;6107556;23;20117;-66
2022/12/14 02:55:53;;;;;;;11.80;4.30;;;;;;;;;;6131604;23;20037;-65
2022/12/14 02:58:22;;;;;;;11.73;4.47;;;;;;;;;;6139744;23;20025;-69
2022/12/14 03:00:50;;;;;;;12.93;4.05;;;;;;;;;;6108015;23;20273;-68
2022/12/14 03:03:17;;;;;;;12.23;4.22;;;;;;;;;;6058114;23;20032;-64
2022/12/14 03:05:43;;;;;;;8.73;3.88;;;;;;;;;;6103649;23;20044;-64
2022/12/14 03:08:12;;;;;;;9.95;4.13;;;;;;;;;;6120292;23;20021;-70
2022/12/14 03:10:41;;;;;;;10.45;4.25;;;;;;;;;;6118181;23;20045;-67
2022/12/14 03:13:12;;;;;;;9.98;3.97;;;;;;;;;;6112244;23;20033;-66
2022/12/14 03:15:40;;;;;;;10.45;3.85;;;;;;;;;;6106857;23;20036;-64
2022/12/14 03:18:10;;;;;;;12.07;4.40;;;;;;;;;;6109356;23;20032;-65
2022/12/14 03:20:37;;;;;;;12.65;4.13;;;;;;;;;;6136596;23;20052;-69
2022/12/14 03:23:07;;;;;;;8.30;3.83;;;;;;;;;;6153046;23;20081;-66
2022/12/14 03:25:39;;;;;;;11.23;3.50;;;;;;;;;;6158125;23;20100;-66
2022/12/14 03:28:08;;;;;;;10.52;3.83;;;;;;;;;;6100590;23;20108;-70
2022/12/14 03:30:36;;;;;;;11.80;4.35;;;;;;;;;;6112769;23;20033;-66
2022/12/14 03:33:04;;;;;;;8.32;3.40;;;;;;;;;;6131858;23;20037;-68
2022/12/14 03:35:34;;;;;;;9.02;3.72;;;;;;;;;;6116956;23;20132;-70
2022/12/14 03:38:04;;;;;;;10.20;3.88;;;;;;;;;;6132462;23;20029;-68
2022/12/14 03:40:33;;;;;;;9.25;3.45;;;;;;;;;;6111097;23;20026;-65
2022/12/14 03:43:03;;;;;;;13.68;4.03;;;;;;;;;;6105036;23;20029;-67
2022/12/14 03:45:33;;;;;;;10.48;4.20;;;;;;;;;;6114851;23;20113;-66
2022/12/14 03:48:02;;;;;;;9.02;3.75;;;;;;;;;;6083462;23;20099;-65
2022/12/14 03:50:32;;;;;;;8.10;3.33;;;;;;;;;;6135128;23;20083;-66
2022/12/14 03:53:03;;;;;;;10.02;3.40;;;;;;;;;;6132475;23;20045;-66
2022/12/14 03:55:32;;;;;;;9.20;3.38;;;;;;;;;;6125382;23;22333;-65
2022/12/14 03:58:11;;;;;;;9.70;3.90;;;;;;;;;;6125824;23;20034;-67
2022/12/14 04:00:43;;;;;;;7.95;3.22;;;;;;;;;;6113695;23;20025;-66
2022/12/14 04:03:12;;;;;;;11.20;3.90;;;;;;;;;;6152002;23;20026;-65
2022/12/14 04:05:40;;;;;;;10.57;3.33;;;;;;;;;;6131217;23;20055;-65
2022/12/14 04:08:12;;;;;;;10.55;3.70;;;;;;;;;;6134108;23;20044;-66
2022/12/14 04:19:01;;;;;;;10.93;3.78;;;;;;;;;;6136897;23;20048;-65
2022/12/14 04:21:32;;;;;;;11.35;3.85;;;;;;;;;;6149020;23;20032;-68
2022/12/14 04:27:02;;;;;;;10.18;3.53;;;;;;;;;;6018608;23;20038;-67
2022/12/14 04:32:17;;;;;;;8.60;3.55;;;;;;;;;;6108468;23;20017;-68
2022/12/14 04:34:46;;;;;;;10.05;3.90;;;;;;;;;;6106748;23;20017;-67
2022/12/14 04:37:15;;;;;;;13.32;3.75;;;;;;;;;;6097934;23;20117;-66
2022/12/14 04:39:45;;;;;;;11.80;3.53;;;;;;;;;;6132786;23;20035;-66
2022/12/14 04:42:13;;;;;;;11.68;4.20;;;;;;;;;;6182864;23;20025;-67
2022/12/14 04:44:41;;;;;;;9.33;3.60;;;;;;;;;;6143086;23;20025;-65
2022/12/14 04:47:10;;;;;;;10.10;3.47;;;;;;;;;;6152948;23;20277;-64
2022/12/14 04:49:39;;;;;;;8.85;2.95;;;;;;;;;;6158172;23;20083;-68
2022/12/14 04:52:09;;;;;;;9.65;3.50;;;;;;;;;;6157997;23;20025;-67
2022/12/14 04:54:40;;;;;;;8.95;3.47;;;;;;;;;;6146276;23;20199;-68
2022/12/14 04:57:11;;;;;;;10.57;3.63;;;;;;;;;;6091202;23;20036;-64
2022/12/14 04:59:37;;;;;;;12.73;3.75;;;;;;;;;;6133422;23;20030;-69
2022/12/14 05:02:08;;;;;;;8.07;3.42;;;;;;;;;;6121053;23;20056;-65
2022/12/14 05:04:41;;;;;;;11.80;4.03;;;;;;;;;;6094870;23;20040;-66
2022/12/14 05:07:12;;;;;;;9.90;3.90;;;;;;;;;;6162229;23;20051;-66
2022/12/14 05:09:41;;;;;;;10.30;3.75;;;;;;;;;;6158229;23;20029;-65
2022/12/14 05:12:13;;;;;;;10.18;3.65;;;;;;;;;;6145254;23;20040;-66
2022/12/14 05:14:42;;;;;;;8.55;3.10;;;;;;;;;;6145110;23;20021;-67
2022/12/14 05:17:08;;;;;;;9.93;3.95;;;;;;;;;;6175997;23;20022;-68
2022/12/14 05:19:35;;;;;;;9.68;3.72;;;;;;;;;;6180866;23;20330;-66
2022/12/14 05:22:05;;;;;;;9.52;3.20;;;;;;;;;;6113515;23;20029;-66
2022/12/14 05:24:32;;;;;;;14.85;3.88;;;;;;;;;;6115135;23;20032;-66
2022/12/14 05:26:58;;;;;;;13.73;3.70;;;;;;;;;;6158064;23;20026;-67
2022/12/14 05:29:26;;;;;;;12.73;3.72;;;;;;;;;;6149714;23;20025;-65
2022/12/14 05:31:53;;;;;;;8.80;2.85;;;;;;;;;;6133077;23;20032;-69
2022/12/14 05:34:20;;;;;;;13.30;3.58;;;;;;;;;;6088733;23;20109;-67
2022/12/14 05:36:46;;;;;;;9.25;3.28;;;;;;;;;;6159536;23;20065;-66
2022/12/14 05:39:13;;;;;;;9.45;3.33;;;;;;;;;;6146397;23;20032;-66
2022/12/14 05:41:39;;;;;;;9.70;3.55;;;;;;;;;;6159209;23;20021;-70
2022/12/14 05:44:06;;;;;;;13.05;4.22;;;;;;;;;;6080277;23;20029;-63
2022/12/14 05:46:34;;;;;;;9.82;3.53;;;;;;;;;;6160196;23;20029;-66
2022/12/14 05:49:04;;;;;;;9.20;2.97;;;;;;;;;;6108342;23;20025;-68
2022/12/14 05:51:30;;;;;;;9.18;3.63;;;;;;;;;;6149733;23;20100;-67
2022/12/14 05:53:58;;;;;;;9.65;3.00;;;;;;;;;;6127430;23;20292;-66
2022/12/14 05:56:24;;;;;;;9.38;3.53;;;;;;;;;;6148883;23;20113;-66
2022/12/14 05:58:51;;;;;;;7.90;3.08;;;;;;;;;;6152758;23;20021;-68
2022/12/14 06:01:17;;;;;;;9.10;3.45;;;;;;;;;;6126173;23;20018;-67
2022/12/14 06:03:45;;;;;;;10.13;3.60;;;;;;;;;;6116725;23;20021;-65
2022/12/14 06:06:12;;;;;;;9.77;3.40;;;;;;;;;;6171718;23;20091;-65
2022/12/14 06:08:40;;;;;;;8.73;3.08;;;;;;;;;;6135192;23;20021;-65
2022/12/14 06:11:08;;;;;;;8.70;3.00;;;;;;;;;;6127498;23;20047;-66
2022/12/14 06:13:34;;;;;;;7.80;3.13;;;;;;;;;;6123329;23;20029;-67
2022/12/14 06:16:09;;;;;;;9.32;3.67;;;;;;;;;;6132972;23;20026;-65
2022/12/14 06:18:35;;;;;;;9.40;3.10;;;;;;;;;;6098554;23;20025;-67
2022/12/14 06:21:03;;;;;;;8.13;3.17;;;;;;;;;;6154397;23;20033;-70
2022/12/14 06:23:30;;;;;;;9.00;3.00;;;;;;;;;;6118653;23;20102;-69
2022/12/14 06:25:57;;;;;;;8.63;3.50;;;;;;;;;;6148360;23;20086;-65
2022/12/14 06:28:23;;;;;;;13.77;3.30;;;;;;;;;;6148529;23;20028;-68
2022/12/14 06:30:50;;;;;;;9.48;2.90;;;;;;;;;;6156160;23;20047;-68
2022/12/14 06:33:16;;;;;;;12.10;3.35;;;;;;;;;;6161173;23;20036;-66
2022/12/14 06:35:43;;;;;;;8.30;2.92;;;;;;;;;;6132257;23;20029;-65
2022/12/14 06:38:12;;;;;;;9.15;3.20;;;;;;;;;;6182737;23;20385;-67
2022/12/14 06:40:38;;;;;;;;;;;;;;;;;;6144903;23;20028;-70
2022/12/14 06:43:05;;;;;;;9.65;2.97;;;;;;;;;;6140718;23;19952;-68
2022/12/14 06:45:32;;;;;;;8.88;3.20;;;;;;;;;;6164945;23;21114;-64
2022/12/14 06:47:59;;;;;;;11.35;3.33;;;;;;;;;;6163349;23;20056;-65
2022/12/14 06:50:26;;;;;;;9.18;3.47;;;;;;;;;;6161933;23;20029;-65
2022/12/14 06:52:54;;;;;;;10.27;2.88;;;;;;;;;;6156657;23;20021;-69
2022/12/14 06:55:22;;;;;;;7.82;3.20;;;;;;;;;;6178342;23;20362;-65
2022/12/14 06:57:50;;;;;;;9.55;3.70;;;;;;;;;;6158518;23;20021;-65
2022/12/14 07:00:17;;;;;;;12.10;3.58;;;;;;;;;;6140234;23;20084;-68
2022/12/14 07:02:43;;;;;;;11.07;3.85;;;;;;;;;;6119361;23;20032;-65
2022/12/14 07:05:10;;;;;;;9.50;3.60;;;;;;;;;;6081063;23;20026;-68
2022/12/14 07:07:36;;;;;;;8.07;3.78;;;;;;;;;;6097211;23;20037;-64
2022/12/14 07:10:04;;;;;;;7.93;3.22;;;;;;;;;;6147482;23;20025;-65
2022/12/14 07:12:32;;;;;;;8.90;3.23;;;;;;;;;;6138425;23;20025;-70
2022/12/14 07:15:01;;;;;;;8.68;3.50;;;;;;;;;;6113344;23;20016;-66
2022/12/14 07:17:28;;;;;;;9.80;3.58;;;;;;;;;;6147035;23;20018;-65
2022/12/14 07:19:54;;;;;;;10.32;3.47;;;;;;;;;;6133198;23;20030;-63
2022/12/14 07:22:21;;;;;;;8.98;3.47;;;;;;;;;;6181854;23;20029;-64
2022/12/14 07:24:47;;;;;;;11.05;3.58;;;;;;;;;;6123172;23;20022;-66
2022/12/14 07:27:14;;;;;;;11.57;3.55;;;;;;;;;;6112503;23;20092;-67
2022/12/14 07:29:43;;;;;;;10.82;3.55;;;;;;;;;;6133911;23;20038;-63
2022/12/14 07:32:10;;;;;;;9.68;3.38;;;;;;;;;;6138548;23;20025;-66
2022/12/14 07:34:36;;;;;;;10.35;3.67;;;;;;;;;;6143772;23;20085;-67
2022/12/14 07:37:03;;;;;;;10.07;3.75;;;;;;;;;;6131951;23;20066;-68
2022/12/14 07:39:30;;;;;;;10.98;4.07;;;;;;;;;;6125634;23;21012;-65
2022/12/14 07:41:56;;;;;;;10.73;4.07;;;;;;;;;;6126436;23;20112;-67
2022/12/14 07:44:23;;;;;;;11.30;4.05;;;;;;;;;;6166531;23;20052;-70
2022/12/14 07:46:52;;;;;;;8.73;3.40;;;;;;;;;;6145277;23;20088;-66
2022/12/14 07:49:19;;;;;;;10.65;3.58;;;;;;;;;;6128069;23;20089;-66
2022/12/14 07:51:45;;;;;;;12.32;4.00;;;;;;;;;;6146131;23;20064;-69
2022/12/14 07:54:12;;;;;;;11.10;3.63;;;;;;;;;;6101916;23;20021;-64
2022/12/14 07:56:40;;;;;;;9.85;3.90;;;;;;;;;;6127532;23;20025;-65
2022/12/14 07:59:08;;;;;;;10.33;4.10;;;;;;;;;;6163142;23;20025;-65
2022/12/14 08:01:35;;;;;;;;;;;;;;;;;;6157914;23;20028;-68
2022/12/14 08:04:05;;;;;;;9.95;3.35;;;;;;;;;;6152689;23;19919;-66
2022/12/14 08:06:33;;;;;;;9.88;3.58;;;;;;;;;;6147048;23;20018;-68
2022/12/14 08:09:02;;;;;;;9.95;3.83;;;;;;;;;;6110073;23;20101;-66
2022/12/14 08:11:29;;;;;;;13.48;4.40;;;;;;;;;;6125975;23;20461;-69
2022/12/14 08:13:56;;;;;;;13.15;4.30;;;;;;;;;;6120744;23;20278;-66
2022/12/14 08:16:22;;;;;;;17.02;4.50;;;;;;;;;;6171901;23;20021;-68
2022/12/14 08:18:49;;;;;;;11.40;4.22;;;;;;;;;;6143344;23;20208;-65
2022/12/14 08:21:19;;;;;;;10.27;3.85;;;;;;;;;;6131987;23;20026;-68
2022/12/14 08:23:46;;;;;;;11.13;4.32;;;;;;;;;;6114733;23;20100;-69
2022/12/14 08:26:12;;;;;;;11.85;4.53;;;;;;;;;;6152797;23;20029;-69
2022/12/14 08:28:39;;;;;;;13.60;4.28;;;;;;;;;;6156735;23;20036;-69
2022/12/14 08:31:08;;;;;;;12.05;3.95;;;;;;;;;;6129533;23;20030;-66
2022/12/14 08:33:36;;;;;;;10.88;4.65;;;;;;;;;;6128097;23;20029;-66
2022/12/14 08:36:06;;;;;;;10.68;3.97;;;;;;;;;;6155453;23;20021;-67
2022/12/14 08:38:35;;;;;;;13.70;4.72;;;;;;;;;;6119104;23;20036;-64
2022/12/14 08:41:05;;;;;;;11.52;4.38;;;;;;;;;;6130446;23;20335;-66
2022/12/14 08:43:31;;;;;;;11.77;4.65;;;;;;;;;;6072555;23;20337;-71
2022/12/14 08:46:01;;;;;;;11.40;4.28;;;;;;;;;;6101454;23;20021;-65
2022/12/14 08:48:27;;;;;;;12.23;4.32;;;;;;;;;;6121780;23;20025;-68
2022/12/14 08:50:54;;;;;;;10.98;4.20;;;;;;;;;;6141553;23;20025;-68
2022/12/14 08:53:20;;;;;;;12.88;4.38;;;;;;;;;;6094906;23;20163;-63
2022/12/14 08:55:48;;;;;;;10.68;4.30;;;;;;;;;;6129377;23;20025;-69
2022/12/14 08:58:15;;;;;;;11.13;4.63;;;;;;;;;;6155727;23;20029;-71
2022/12/14 09:00:42;;;;;;;13.57;4.28;;;;;;;;;;6117651;23;20025;-68
2022/12/14 09:03:08;;;;;;;12.65;4.35;;;;;;;;;;6125805;23;20026;-66
2022/12/14 09:05:37;;;;;;;10.80;3.92;;;;;;;;;;6117160;23;20029;-67
2022/12/14 09:08:04;;;;;;;12.48;4.60;;;;;;;;;;6169173;23;20056;-67
2022/12/14 09:10:30;;;;;;;11.55;4.63;;;;;;;;;;6134958;23;20094;-68
2022/12/14 09:13:04;;;;;;;10.18;4.03;;;;;;;;;;6098384;23;20048;-65
2022/12/14 09:15:31;;;;;;;12.50;4.75;;;;;;;;;;6098025;23;20029;-70
2022/12/14 09:17:57;;;;;;;11.65;4.25;;;;;;;;;;6142019;23;20069;-70
2022/12/14 09:20:24;;;;;;;13.15;5.32;;;;;;;;;;6157393;23;20111;-69
2022/12/14 09:22:53;;;;;;;12.88;4.68;;;;;;;;;;6161632;23;20173;-69
2022/12/14 09:25:20;;;;;;;12.50;4.63;;;;;;;;;;6104522;23;20101;-69
2022/12/14 09:27:46;;;;;;;13.02;4.68;;;;;;;;;;6155579;23;20100;-67
2022/12/14 09:30:15;;;;;;;11.60;4.47;;;;;;;;;;6156615;23;20025;-67
2022/12/14 09:32:46;;;;;;;13.68;4.70;;;;;;;;;;6130483;23;20025;-68
2022/12/14 09:35:15;;;;;;;10.82;4.15;;;;;;;;;;6112662;23;20025;-65
2022/12/14 09:37:41;;;;;;;16.05;4.22;;;;;;;;;;6155766;23;20033;-65
2022/12/14 09:40:10;;;;;;;12.85;4.75;;;;;;;;;;6132591;23;20053;-64
2022/12/14 09:42:48;;;;;;;13.85;4.72;;;;;;;;;;6179635;23;20029;-67
2022/12/14 09:45:25;;;;;;;12.70;4.57;;;;;;;;;;6132188;23;20036;-69
2022/12/14 09:47:56;;;;;;;13.80;4.30;;;;;;;;;;6145006;23;20275;-69
2022/12/14 09:50:26;;;;;;;13.88;4.28;;;;;;;;;;6149745;23;20025;-67
2022/12/14 09:52:56;;;;;;;16.48;3.83;;;;;;;;;;6114000;23;20056;-68
2022/12/14 09:55:25;;;;;;;12.65;4.50;;;;;;;;;;6121029;23;20033;-68
2022/12/14 09:57:55;;;;;;;11.65;4.20;;;;;;;;;;6080259;23;20036;-69
2022/12/14 10:00:23;;;;;;;11.93;4.05;;;;;;;;;;6145743;23;20032;-69
2022/12/14 10:03:08;;;;;;;10.10;3.90;;;;;;;;;;6141816;23;20025;-68
2022/12/14 10:05:49;;;;;;;10.93;4.15;;;;;;;;;;6122982;23;20025;-66
2022/12/14 10:08:20;;;;;;;10.85;4.03;;;;;;;;;;6130000;23;20021;-68
2022/12/14 10:10:51;;;;;;;11.38;4.07;;;;;;;;;;6170827;23;20026;-68
2022/12/14 10:13:24;;;;;;;15.20;4.97;;;;;;;;;;6122534;23;20020;-69
2022/12/14 10:15:57;;;;;;;11.40;3.97;;;;;;;;;;6093345;23;20031;-66
2022/12/14 10:18:32;;;;;;;9.15;3.80;;;;;;;;;;6140089;23;20039;-66
2022/12/14 10:21:02;;;;;;;13.82;4.50;;;;;;;;;;6167626;23;20036;-67
2022/12/14 10:23:29;;;;;;;14.30;4.57;;;;;;;;;;6179031;23;20025;-70
2022/12/14 10:25:57;;;;;;;10.10;4.50;;;;;;;;;;6139476;23;20036;-68
2022/12/14 10:28:30;;;;;;;13.82;4.57;;;;;;;;;;6156302;23;20048;-68
2022/12/14 10:31:04;;;;;;;11.30;3.97;;;;;;;;;;6141649;23;20400;-67
2022/12/14 10:33:31;;;;;;;9.75;3.67;;;;;;;;;;6095335;23;20029;-66
2022/12/14 10:36:04;;;;;;;11.15;3.88;;;;;;;;;;6153414;23;20025;-68
2022/12/14 10:38:36;;;;;;;10.18;3.85;;;;;;;;;;6119945;23;20084;-68
2022/12/14 10:41:07;;;;;;;10.38;3.97;;;;;;;;;;6124352;23;20025;-69
2022/12/14 10:43:38;;;;;;;9.45;3.83;;;;;;;;;;6098585;23;20068;-66
2022/12/14 10:46:12;;;;;;;10.02;3.97;;;;;;;;;;6101179;23;20037;-70
2022/12/14 10:48:44;;;;;;;9.90;3.70;;;;;;;;;;6094898;23;20029;-67
2022/12/14 10:51:12;;;;;;;11.52;4.47;;;;;;;;;;6119920;23;20469;-67
2022/12/14 10:53:41;;;;;;;9.98;3.72;;;;;;;;;;6117217;23;20036;-69
2022/12/14 10:56:14;;;;;;;12.25;4.15;;;;;;;;;;6130325;23;20033;-68
2022/12/14 10:58:41;;;;;;;12.07;3.72;;;;;;;;;;6158253;23;20105;-66
2022/12/14 11:01:12;;;;;;;13.80;3.90;;;;;;;;;;6086272;23;20024;-65
2022/12/14 11:03:39;;;;;;;13.40;3.80;;;;;;;;;;6144206;23;20095;-67
2022/12/14 11:06:10;;;;;;;11.30;3.92;;;;;;;;;;6135698;23;20108;-68
2022/12/14 11:08:38;;;;;;;9.88;3.75;;;;;;;;;;6135751;23;20025;-66
2022/12/14 11:11:07;;;;;;;12.32;4.13;;;;;;;;;;6177456;23;20017;-69
2022/12/14 11:13:33;;;;;;;10.20;3.67;;;;;;;;;;6111354;23;20026;-70
2022/12/14 11:16:02;;;;;;;;;;;;;;;;;;6133287;23;20133;-65
2022/12/14 11:18:30;;;;;;;12.32;3.50;;;;;;;;;;6157522;23;19921;-69
2022/12/14 11:20:58;;;;;;;10.13;3.60;;;;;;;;;;6163172;23;20079;-66
2022/12/14 11:23:25;;;;;;;9.30;3.78;;;;;;;;;;6085648;23;20037;-68
2022/12/14 11:25:55;;;;;;;9.13;3.70;;;;;;;;;;6086134;23;20059;-66
2022/12/14 11:28:27;;;;;;;11.80;3.67;;;;;;;;;;6145020;23;20025;-69
2022/12/14 11:30:55;;;;;;;9.13;3.85;;;;;;;;;;6144064;23;20017;-67
2022/12/14 11:33:22;;;;;;;;;;;;;;;;;;6126149;23;20104;-66
2022/12/14 11:35:53;;;;;;;10.55;3.28;;;;;;;;;;6127269;23;19919;-68
2022/12/14 11:38:19;;;;;;;12.10;4.03;;;;;;;;;;6132264;23;20027;-65
2022/12/14 11:40:47;;;;;;;10.10;4.00;;;;;;;;;;6109633;23;20028;-67
2022/12/14 11:43:18;;;;;;;9.45;3.30;;;;;;;;;;6111071;23;20021;-66
2022/12/14 11:45:50;;;;;;;9.85;4.32;;;;;;;;;;6043362;23;20054;-66
2022/12/14 11:48:21;;;;;;;12.68;4.40;;;;;;;;;;6164557;23;20025;-65
2022/12/14 11:50:48;;;;;;;10.32;3.78;;;;;;;;;;6183606;23;20025;-65
2022/12/14 11:53:17;;;;;;;11.85;4.07;;;;;;;;;;6120405;23;20036;-69
2022/12/14 11:55:45;;;;;;;12.85;4.03;;;;;;;;;;6065917;23;20229;-69
2022/12/14 11:58:15;;;;;;;12.95;4.20;;;;;;;;;;6143014;23;20036;-68
2022/12/14 12:00:47;;;;;;;9.50;3.72;;;;;;;;;;6158290;23;20056;-66
2022/12/14 12:03:20;;;;;;;13.93;4.32;;;;;;;;;;6107737;23;20041;-67
2022/12/14 12:05:46;;;;;;;17.55;4.63;;;;;;;;;;6066360;23;20148;-69
2022/12/14 12:08:19;;;;;;;12.40;4.90;;;;;;;;;;6151517;23;20029;-66
2022/12/14 12:10:48;;;;;;;11.60;4.03;;;;;;;;;;6103274;23;20025;-66
2022/12/14 12:13:20;;;;;;;18.45;5.35;;;;;;;;;;6148990;23;20064;-65
2022/12/14 12:15:50;;;;;;;12.60;4.60;;;;;;;;;;6129240;23;20040;-67
2022/12/14 12:18:19;;;;;;;12.25;4.30;;;;;;;;;;6180174;23;20040;-65
2022/12/14 12:20:50;;;;;;;11.40;4.47;;;;;;;;;;6152668;23;20029;-66
2022/12/14 12:23:18;;;;;;;13.50;4.55;;;;;;;;;;6147310;23;20092;-70
2022/12/14 12:25:46;;;;;;;;;;;;;;;;;;6107117;23;20033;-65
2022/12/14 12:28:18;;;;;;;11.75;3.67;;;;;;;;;;6130198;23;19920;-70
2022/12/14 12:30:49;;;;;;;11.40;4.32;;;;;;;;;;6112025;23;20061;-68
2022/12/14 12:33:22;;;;;;;12.30;4.07;;;;;;;;;;6137383;23;20032;-69
2022/12/14 12:35:50;;;;;;;10.65;4.50;;;;;;;;;;6116948;23;20029;-70
2022/12/14 12:38:20;;;;;;;12.63;4.90;;;;;;;;;;6158251;23;20113;-70
2022/12/14 12:40:54;;;;;;;10.88;4.45;;;;;;;;;;6123751;23;20029;-72
2022/12/14 12:43:27;;;;;;;12.50;4.65;;;;;;;;;;6100057;23;20029;-70
2022/12/14 12:45:56;;;;;;;11.48;4.38;;;;;;;;;;6119175;23;20063;-66
2022/12/14 12:48:26;;;;;;;11.05;4.00;;;;;;;;;;6075825;23;20137;-66
2022/12/14 12:50:55;;;;;;;11.25;4.68;;;;;;;;;;6131931;23;20033;-67
2022/12/14 12:53:27;;;;;;;15.73;4.97;;;;;;;;;;6123581;23;20288;-65
2022/12/14 12:55:56;;;;;;;14.38;4.43;;;;;;;;;;6146820;23;20041;-69
2022/12/14 12:58:24;;;;;;;16.88;4.85;;;;;;;;;;6156526;23;20031;-67
2022/12/14 13:00:54;;;;;;;12.70;4.68;;;;;;;;;;6155768;23;20056;-67
2022/12/14 13:03:23;;;;;;;11.38;4.25;;;;;;;;;;6109076;23;20030;-68
2022/12/14 13:05:51;;;;;;;9.93;4.05;;;;;;;;;;6154893;23;20026;-68
2022/12/14 13:08:22;;;;;;;12.23;4.40;;;;;;;;;;6122592;23;20021;-65
2022/12/14 13:10:50;;;;;;;11.35;4.28;;;;;;;;;;6154888;23;20025;-68
2022/12/14 13:13:18;;;;;;;11.10;4.72;;;;;;;;;;6159855;23;20129;-67
2022/12/14 13:15:46;;;;;;;12.75;4.03;;;;;;;;;;6113143;23;20096;-68
2022/12/14 13:18:20;;;;;;;9.63;4.30;;;;;;;;;;6156252;23;20145;-67
2022/12/14 13:20:49;;;;;;;12.65;4.55;;;;;;;;;;6148161;23;20026;-67
2022/12/14 13:23:16;;;;;;;17.00;4.55;;;;;;;;;;6132373;23;20025;-67
2022/12/14 13:25:47;;;;;;;13.10;4.93;;;;;;;;;;6101668;23;20340;-67
2022/12/14 13:28:33;;;;;;;10.25;4.63;;;;;;;;;;6147790;23;20029;-66
2022/12/14 13:31:14;;;;;;;12.13;4.28;;;;;;;;;;6136756;23;20021;-67
2022/12/14 13:34:04;;;;;;;10.57;4.22;;;;;;;;;;6123239;23;20021;-66
2022/12/14 13:36:47;;;;;;;12.25;5.07;;;;;;;;;;6139411;23;20025;-66
2022/12/14 13:39:26;;;;;;;13.13;4.32;;;;;;;;;;6122631;23;20044;-68
2022/12/14 13:41:56;;;;;;;16.23;4.70;;;;;;;;;;6180949;23;20060;-67
2022/12/14 13:44:40;;;;;;;13.95;5.03;;;;;;;;;;6154083;23;20091;-67
2022/12/14 13:47:13;;;;;;;12.35;4.57;;;;;;;;;;6075755;23;20029;-67
2022/12/14 13:49:39;;;;;;;13.70;5.05;;;;;;;;;;6127365;23;20033;-67
2022/12/14 13:52:30;;;;;;;12.30;4.03;;;;;;;;;;6178940;23;20110;-66
2022/12/14 13:54:57;;;;;;;14.27;5.13;;;;;;;;;;6130043;23;20030;-67
2022/12/14 13:57:24;;;;;;;14.68;4.22;;;;;;;;;;6096996;23;20079;-68
2022/12/14 13:59:51;;;;;;;14.15;4.75;;;;;;;;;;6163458;23;20132;-67
2022/12/14 14:02:37;;;;;;;14.18;5.28;;;;;;;;;;6143884;23;20108;-67
2022/12/14 14:05:19;;;;;;;11.35;4.10;;;;;;;;;;6173600;23;20018;-67
2022/12/14 14:07:56;;;;;;;19.35;4.82;;;;;;;;;;6122597;23;20020;-65
2022/12/14 14:10:30;;;;;;;10.38;3.90;;;;;;;;;;6143694;23;20136;-67
2022/12/14 14:12:59;;;;;;;13.82;4.65;;;;;;;;;;6183241;23;20108;-66
2022/12/14 14:15:43;;;;;;;14.82;4.68;;;;;;;;;;6134036;23;20021;-65
2022/12/14 14:18:19;;;;;;;10.77;4.45;;;;;;;;;;6142744;23;20226;-67
2022/12/14 14:20:48;;;;;;;12.85;4.32;;;;;;;;;;6134402;23;20128;-66
2022/12/14 14:23:32;;;;;;;11.88;4.45;;;;;;;;;;6129134;23;20557;-67
2022/12/14 14:26:24;;;;;;;11.57;4.05;;;;;;;;;;6067512;23;20035;-67
2022/12/14 14:29:08;;;;;;;12.02;4.40;;;;;;;;;;6069324;23;20029;-67
2022/12/14 14:31:51;;;;;;;12.60;4.70;;;;;;;;;;6137066;23;20022;-66
2022/12/14 14:34:19;;;;;;;17.75;4.80;;;;;;;;;;6097498;23;20028;-68
2022/12/14 14:36:46;;;;;;;12.02;4.55;;;;;;;;;;6133417;23;20033;-67
2022/12/14 14:39:29;;;;;;;12.18;4.22;;;;;;;;;;6170083;23;20021;-67
2022/12/14 14:41:56;;;;;;;10.63;4.53;;;;;;;;;;6157780;23;20032;-67
2022/12/14 14:44:29;;;;;;;11.15;4.30;;;;;;;;;;6105102;23;20029;-67
2022/12/14 14:46:59;;;;;;;10.57;4.18;;;;;;;;;;6132695;23;20035;-65
2022/12/14 14:49:30;;;;;;;13.10;4.75;;;;;;;;;;6121504;23;20876;-67
2022/12/14 14:51:57;;;;;;;10.95;4.68;;;;;;;;;;6158351;23;20045;-67
2022/12/14 14:54:30;;;;;;;12.90;4.38;;;;;;;;;;6155078;23;20021;-68
2022/12/14 14:56:59;;;;;;;13.95;5.10;;;;;;;;;;6107142;23;20092;-66
2022/12/14 14:59:38;;;;;;;11.45;3.80;;;;;;;;;;6127290;23;20025;-67
2022/12/14 15:02:17;;;;;;;12.90;4.75;;;;;;;;;;6183791;23;20031;-67
2022/12/14 15:04:44;;;;;;;13.35;4.50;;;;;;;;;;6067613;23;20121;-67